»·PEaware :: N7886N KBZN-KMSO

N7886N :: KBZN-KMSO

FLIGHT INFORMATION

Flight Status: Arrived
Operator: Privately registered:
United States
More flights under this callsign
Pilot: Lake Area Tech (24716)
Aircraft: CESSNA 172 SKYHAWK
(C172)
More flights by this aircraft type
Origin: KBZN Gallatin
United States
Destination: KMSO Missoula Intl
United States
More flights between these airports :: More routes between these airports
Route: +HIA V86 MSO
File this flight plan on PilotEdge
Remarks: +CW / requesting an unpublished hold along the route
Altitude:
(Current/Filed)
12,000ft
Speed:
(Current/Filed)
110kts
Departed: 13-Feb-20 12:22 PM
Arrived: 13-Feb-20 01:59 PM
Distance/Time
Traveled:
140nm/1:37
Distance/Time
To Go:
Arrived

Flight Plot

Page will automatically refresh every two minutes.

Flight plan parsing failed; only flown route is shown


Map Options




Map Legend


Flown Route
Filed Route
Departure Airport
Arrival Airport
Navaid (VOR, NDB)
Fix

Horizontal Profiles

Position Reports

Time Latitude Longitude Heading Altitude Ground
Speed
13-Feb-20 11:51 45.774097 -111.153488 45 4475ft 0kts
13-Feb-20 11:52 45.774097 -111.153488 45 4475ft 0kts
13-Feb-20 11:53 45.774097 -111.153488 45 4475ft 0kts
13-Feb-20 11:54 45.774097 -111.153488 45 4475ft 0kts
13-Feb-20 11:55 45.774097 -111.153488 45 4475ft 0kts
13-Feb-20 11:56 45.774097 -111.153488 45 4475ft 0kts
13-Feb-20 11:57 45.774097 -111.153488 45 4475ft 0kts
13-Feb-20 11:58 45.774097 -111.153488 45 4475ft 0kts
13-Feb-20 11:59 45.774097 -111.153488 45 4475ft 0kts
13-Feb-20 12:00 45.774097 -111.153488 45 4475ft 0kts
13-Feb-20 12:01 45.774097 -111.153488 45 4475ft 0kts
13-Feb-20 12:02 45.774097 -111.153488 45 4475ft 0kts
13-Feb-20 12:03 45.774097 -111.153488 45 4475ft 0kts
13-Feb-20 12:04 45.774097 -111.153488 45 4475ft 0kts
13-Feb-20 12:05 45.774097 -111.153488 45 4475ft 0kts
13-Feb-20 12:06 45.774097 -111.153488 45 4475ft 0kts
13-Feb-20 12:07 45.774097 -111.153488 45 4475ft 0kts
13-Feb-20 12:08 45.774097 -111.153488 45 4475ft 0kts
13-Feb-20 12:09 45.774097 -111.153488 45 4475ft 0kts
13-Feb-20 12:10 45.774097 -111.153488 45 4475ft 0kts
13-Feb-20 12:11 45.774393 -111.153148 28 4475ft 5kts
13-Feb-20 12:12 45.775928 -111.153672 312 4475ft 11kts
13-Feb-20 12:13 45.778137 -111.156705 315 4475ft 8kts
13-Feb-20 12:14 45.780535 -111.160106 317 4475ft 13kts
13-Feb-20 12:15 45.782796 -111.163251 315 4475ft 12kts
13-Feb-20 12:16 45.785349 -111.166803 314 4474ft 10kts
13-Feb-20 12:17 45.786798 -111.168173 39 4475ft 0kts
13-Feb-20 12:18 45.786798 -111.168173 39 4475ft 0kts
13-Feb-20 12:19 45.786798 -111.168173 39 4475ft 0kts
13-Feb-20 12:20 45.787746 -111.166234 111 4475ft 15kts
13-Feb-20 12:21 45.772936 -111.150792 180 4998ft 95kts
13-Feb-20 12:22 45.764001 -111.180269 257 6195ft 86kts
13-Feb-20 12:23 45.756260 -111.210803 239 7276ft 80kts
13-Feb-20 12:24 45.744855 -111.240901 240 8183ft 90kts
13-Feb-20 12:25 45.732299 -111.270274 234 9170ft 81kts
13-Feb-20 12:26 45.720985 -111.302387 249 9874ft 100kts
13-Feb-20 12:27 45.709245 -111.338989 241 10688ft 98kts
13-Feb-20 12:28 45.696433 -111.373699 240 11445ft 99kts
13-Feb-20 12:30 45.683091 -111.408833 240 12034ft 113kts
13-Feb-20 12:31 45.667443 -111.452941 243 12003ft 129kts
13-Feb-20 12:32 45.671906 -111.500595 293 12000ft 127kts
13-Feb-20 12:33 45.685468 -111.547414 292 11999ft 127kts
13-Feb-20 12:34 45.698864 -111.594126 292 12000ft 127kts
13-Feb-20 12:35 45.712268 -111.641019 292 12000ft 127kts
13-Feb-20 12:36 45.725609 -111.687765 292 12000ft 127kts
13-Feb-20 12:37 45.738986 -111.734715 292 12000ft 127kts
13-Feb-20 12:38 45.752308 -111.781562 292 12000ft 127kts
13-Feb-20 12:39 45.765601 -111.828390 292 12000ft 127kts
13-Feb-20 12:40 45.778883 -111.875276 292 12000ft 127kts
13-Feb-20 12:41 45.792179 -111.922300 292 12000ft 127kts
13-Feb-20 12:42 45.805434 -111.969273 292 12000ft 127kts
13-Feb-20 12:43 45.818650 -112.016189 292 12000ft 127kts
13-Feb-20 12:44 45.831898 -112.063320 292 12000ft 127kts
13-Feb-20 12:45 45.845093 -112.110344 292 12000ft 127kts
13-Feb-20 12:46 45.858269 -112.157403 292 12000ft 127kts
13-Feb-20 12:46 45.869540 -112.196536 294 12000ft 127kts
13-Feb-20 12:48 45.885825 -112.250879 294 12000ft 127kts
13-Feb-20 12:49 45.899687 -112.297615 293 12000ft 127kts
13-Feb-20 12:49 45.911174 -112.336459 293 11999ft 127kts
13-Feb-20 12:50 45.925035 -112.383363 294 12000ft 127kts
13-Feb-20 12:52 45.941107 -112.437906 293 12000ft 127kts
13-Feb-20 12:52 45.952561 -112.476858 293 12000ft 127kts
13-Feb-20 12:53 45.966480 -112.523404 293 12000ft 127kts
13-Feb-20 12:54 45.980259 -112.570101 293 12000ft 127kts
13-Feb-20 12:55 45.994022 -112.617134 293 12000ft 127kts
13-Feb-20 12:56 46.007696 -112.663958 293 12000ft 127kts
13-Feb-20 12:57 46.021388 -112.710935 293 12000ft 127kts
13-Feb-20 12:58 46.037312 -112.755731 314 12001ft 127kts
13-Feb-20 12:59 46.061993 -112.792290 314 11999ft 127kts
13-Feb-20 13:00 46.086630 -112.828908 314 12000ft 127kts
13-Feb-20 13:01 46.111126 -112.865524 314 12000ft 127kts
13-Feb-20 13:02 46.135696 -112.902313 314 12000ft 127kts
13-Feb-20 13:03 46.160180 -112.938999 314 12000ft 127kts
13-Feb-20 13:04 46.184747 -112.975863 314 12000ft 127kts
13-Feb-20 13:05 46.209239 -113.012666 314 12000ft 127kts
13-Feb-20 13:06 46.233729 -113.049482 314 11999ft 127kts
13-Feb-20 13:07 46.259215 -113.085301 317 11972ft 127kts
13-Feb-20 13:08 46.283635 -113.122022 313 12000ft 126kts
13-Feb-20 13:09 46.308031 -113.158670 313 11998ft 127kts
13-Feb-20 13:10 46.332944 -113.195072 313 12000ft 127kts
13-Feb-20 13:11 46.356247 -113.233459 316 12005ft 127kts
13-Feb-20 13:12 46.381539 -113.270616 312 11984ft 134kts
13-Feb-20 13:13 46.406240 -113.310825 316 11999ft 135kts
13-Feb-20 13:14 46.432753 -113.349002 316 11999ft 136kts
13-Feb-20 13:15 46.458437 -113.389286 319 11995ft 136kts
13-Feb-20 13:16 46.484406 -113.429262 316 12002ft 136kts
13-Feb-20 13:17 46.509101 -113.471103 312 11993ft 137kts
13-Feb-20 13:18 46.532584 -113.513027 311 11997ft 133kts
13-Feb-20 13:19 46.556273 -113.555273 311 12007ft 137kts
13-Feb-20 13:20 46.580277 -113.598030 311 11988ft 134kts
13-Feb-20 13:21 46.604199 -113.640650 312 11871ft 142kts
13-Feb-20 13:22 46.630142 -113.686647 312 11398ft 148kts
13-Feb-20 13:23 46.655696 -113.732087 312 10915ft 147kts
13-Feb-20 13:24 46.681623 -113.778276 312 10437ft 146kts
13-Feb-20 13:25 46.707138 -113.823761 312 10025ft 141kts
13-Feb-20 13:26 46.730922 -113.866434 312 9989ft 129kts
13-Feb-20 13:27 46.753133 -113.906516 312 9985ft 125kts
13-Feb-20 13:28 46.775302 -113.946527 312 9992ft 132kts
13-Feb-20 13:29 46.798920 -113.988881 312 9994ft 136kts
13-Feb-20 13:30 46.822402 -114.030956 312 10000ft 136kts
13-Feb-20 13:31 46.846527 -114.074129 312 10000ft 137kts
13-Feb-20 13:32 46.870630 -114.117260 312 10000ft 136kts
13-Feb-20 13:33 46.894569 -114.160127 312 10000ft 135kts
13-Feb-20 13:34 46.918037 -114.202193 312 9999ft 129kts
13-Feb-20 13:35 46.940058 -114.241906 312 10001ft 123kts
13-Feb-20 13:36 46.961134 -114.280061 312 10007ft 120kts
13-Feb-20 13:37 46.982173 -114.318161 312 9997ft 119kts
13-Feb-20 13:38 47.003023 -114.355931 312 9996ft 119kts
13-Feb-20 13:39 47.023807 -114.393617 312 10001ft 119kts
13-Feb-20 13:40 47.044680 -114.431427 312 10003ft 119kts
13-Feb-20 13:41 47.065613 -114.469308 312 10004ft 120kts
13-Feb-20 13:42 47.086635 -114.507307 312 10002ft 120kts
13-Feb-20 13:43 47.108079 -114.545226 327 10017ft 120kts
13-Feb-20 13:44 47.136741 -114.531794 33 10000ft 113kts
13-Feb-20 13:45 47.144756 -114.495076 103 9999ft 109kts
13-Feb-20 13:46 47.129351 -114.459427 136 9695ft 110kts
13-Feb-20 13:47 47.109545 -114.429049 131 9063ft 97kts
13-Feb-20 13:48 47.092213 -114.398867 125 8492ft 96kts
13-Feb-20 13:49 47.075482 -114.367647 128 7909ft 98kts
13-Feb-20 13:50 47.057672 -114.337363 128 7347ft 99kts
13-Feb-20 13:51 47.039013 -114.306871 127 6763ft 100kts
13-Feb-20 13:52 47.021270 -114.276166 126 6253ft 98kts
13-Feb-20 13:53 47.004368 -114.243763 128 5665ft 103kts
13-Feb-20 13:54 46.986223 -114.212365 130 5122ft 100kts
13-Feb-20 13:55 46.968321 -114.180985 129 4578ft 100kts
13-Feb-20 13:56 46.950152 -114.149649 130 4012ft 100kts
13-Feb-20 13:57 46.931886 -114.118590 129 3460ft 100kts
13-Feb-20 13:58 46.918957 -114.096494 131 3209ft 34kts
13-Feb-20 13:59 46.918515 -114.093485 36 3209ft 0kts
13-Feb-20 14:00 46.919386 -114.092660 37 3209ft 13kts
13-Feb-20 14:01 46.920656 -114.090113 131 3209ft 8kts

Navigation Log

Ident Type
Flight plan parsing failed, navigation log unavailable